To NAV CANADA Home Page Login to a new session Search on AWWS site Feedback and Comments Disclaimer Vers la page française équivalente Tips FAQ What's new on the site To the Forecasts and Observations / NOTAM section To "File a Flight Plan" website Publications and other links Update of the User's profile FIC Telephone Numbers My Weather Data Folder Route Weather Data Regional Weather Data Local Weather Data To the Forecasts and Observations / NOTAM section
Request Generated 07/02/2015 at 03:37:34 UTC . Weather information available at that time is displayed.

METAR/TAF

HALIFAX/STANFIELD INTL/NS    

METAR CYHZ 020300Z 14011KT 1/4SM R14/2200FT/N R23/1600FT/N FG VV001
15/15 A2986 RMK FG8 SLP110 DENSITY ALT 600FT=
METAR CYHZ 020200Z 14011KT 1/4SM R14/4000V5500FT/N R23/2800FT/N FG
VV001 15/15 A2986 RMK FG8 SLP111 DENSITY ALT 600FT=
SPECI CYHZ 020119Z 15012G17KT 1/4SM R14/5000FT/N R23/2600FT/D FG
VV001 16/15 A2988 RMK FG8 SLP117 DENSITY ALT 700FT=
METAR CYHZ 020100Z 15011G17KT 1/2SM R14/5000VP6000FT/D R23/3500FT/D
FG VV001 16/15 A2987 RMK FG8 PRESRR SLP115 DENSITY ALT 700FT=

TAF CYHZ 020238Z 0203/0224 14010KT 1/4SM FG VV002 TEMPO 0203/0206
1/8SM FG VV001
FM020600 18010KT 1/8SM FG VV001 TEMPO 0206/0211 1/2SM FG VV002
FM021100 20010KT 3SM BR OVC005
FM021400 21010KT P6SM OVC010
FM021700 22012KT P6SM BKN030
FM022000 22012KT P6SM SCT030
RMK NXT FCST BY 020600Z=
Your time UTC time
Weather data provided by Environment Canada and NAV CANADA